Time;durP1;ratioP1;P1;durP2;ratioP2;P2;SDS_P1;SDS_P2;PMS_P1;PMS_P2;Temp;Humidity;BMP_temperature;BMP_pressure;BME280_temperature;BME280_humidity;BME280_pressure;Samples;Min_cycle;Max_cycle;Signal;HPM_P1;HPM_P2
2021/07/21 00:00:38;;;;;;;5.70;3.20;;;;;;;19.45;32.29;101800.06;3579821;40;20662;-74
2021/07/21 00:03:07;;;;;;;5.57;3.20;;;;;;;19.41;32.88;101795.91;3589965;40;20055;-74
2021/07/21 00:05:36;;;;;;;6.72;3.70;;;;;;;19.44;32.75;101803.00;3589817;40;20467;-73
2021/07/21 00:08:06;;;;;;;6.25;3.63;;;;;;;19.44;32.85;101801.09;3567651;40;20533;-74
2021/07/21 00:10:35;;;;;;;4.78;2.92;;;;;;;19.43;32.62;101795.75;3574580;40;20377;-73
2021/07/21 00:15:59;;;;;;;5.40;3.47;;;;;;;19.41;32.52;101795.91;3583927;40;22540;-75
2021/07/21 00:18:30;;;;;;;4.88;2.95;;;;;;;19.41;32.79;101795.91;3595796;40;20029;-73
2021/07/21 00:20:59;;;;;;;5.50;3.13;;;;;;;19.37;32.90;101788.94;3577368;40;20036;-74
2021/07/21 00:23:28;;;;;;;5.10;3.15;;;;;;;19.40;32.61;101794.16;3587066;40;20392;-74
2021/07/21 00:25:57;;;;;;;4.97;3.00;;;;;;;19.38;32.85;101790.66;3585529;40;20047;-73
2021/07/21 00:28:25;;;;;;;6.00;3.47;;;;;;;19.38;33.08;101792.56;3595536;40;20432;-74
2021/07/21 00:30:53;;;;;;;5.78;3.40;;;;;;;19.36;32.49;101792.75;3589276;40;20050;-72
2021/07/21 00:33:23;;;;;;;7.32;3.50;;;;;;;19.35;32.86;101784.59;3590133;40;20275;-75
2021/07/21 00:35:51;;;;;;;6.50;3.60;;;;;;;19.33;32.87;101784.78;3576708;40;20065;-73
2021/07/21 00:38:20;;;;;;;5.95;3.25;;;;;;;19.32;33.11;101787.72;3586897;40;20041;-74
2021/07/21 00:40:50;;;;;;;5.45;3.35;;;;;;;19.31;32.86;101785.97;3547979;40;23205;-75
2021/07/21 00:43:19;;;;;;;5.65;3.33;;;;;;;19.28;32.64;101795.47;3527922;40;20035;-73
2021/07/21 00:45:48;;;;;;;5.38;3.08;;;;;;;19.28;32.85;101786.28;3555045;40;20101;-75
2021/07/21 00:48:17;;;;;;;5.18;3.22;;;;;;;19.26;33.46;101792.03;3558896;40;20045;-74
2021/07/21 00:50:45;;;;;;;6.05;3.47;;;;;;;19.24;33.49;101790.44;3568188;40;20041;-71
2021/07/21 00:53:14;;;;;;;6.50;3.42;;;;;;;19.23;33.31;101788.72;3567798;40;20034;-71
2021/07/21 00:55:43;;;;;;;5.40;3.38;;;;;;;19.21;33.02;101788.88;3544654;40;20116;-74
2021/07/21 00:58:13;;;;;;;5.57;3.65;;;;;;;19.21;33.58;101794.41;3617836;22;20045;-72
2021/07/21 01:00:42;;;;;;;5.47;3.20;;;;;;;19.16;32.96;101792.16;3559531;39;20041;-73
2021/07/21 01:03:11;;;;;;;5.78;3.35;;;;;;;19.15;33.42;101790.41;3575321;40;20056;-71
2021/07/21 01:05:42;;;;;;;5.40;3.30;;;;;;;19.15;33.82;101787.63;3570733;40;20085;-72
2021/07/21 01:08:12;;;;;;;5.40;3.30;;;;;;;19.12;32.92;101784.31;3575569;40;20107;-72
2021/07/21 01:11:05;;;;;;;6.25;3.50;;;;;;;19.12;33.90;101778.78;3568436;40;20283;-72
2021/07/21 01:13:42;;;;;;;6.78;3.90;;;;;;;19.10;33.61;101778.94;3569869;40;20049;-73
2021/07/21 01:16:16;;;;;;;5.30;3.50;;;;;;;19.07;33.67;101775.63;3570351;40;20040;-72
2021/07/21 01:18:48;;;;;;;5.35;3.30;;;;;;;19.03;33.62;101783.41;3568326;40;20064;-72
2021/07/21 01:21:34;;;;;;;6.53;3.15;;;;;;;18.97;34.49;101786.84;3569351;40;20049;-73
2021/07/21 01:24:24;;;;;;;5.72;3.40;;;;;;;18.93;33.96;101781.81;3570714;40;20385;-73
2021/07/21 01:27:25;;;;;;;5.93;3.72;;;;;;;18.87;34.01;101776.91;3573796;40;20034;-72
2021/07/21 01:29:56;;;;;;;6.55;3.15;;;;;;;18.84;34.37;101775.34;3573608;40;20061;-72
2021/07/21 01:32:29;;;;;;;6.78;3.25;;;;;;;18.82;34.30;101785.72;3570848;40;20041;-72
2021/07/21 01:35:06;;;;;;;6.50;3.47;;;;;;;18.79;34.83;101774.94;3568835;40;20045;-72
2021/07/21 01:37:37;;;;;;;5.25;3.78;;;;;;;18.75;34.29;101779.06;3561504;40;20040;-72
2021/07/21 01:40:11;;;;;;;5.95;3.53;;;;;;;18.72;34.04;101793.25;3574905;40;20053;-72
2021/07/21 01:42:41;;;;;;;5.75;3.35;;;;;;;18.69;34.71;101777.78;3573908;40;20332;-72
2021/07/21 01:45:11;;;;;;;5.00;3.25;;;;;;;18.65;34.15;101787.50;3569714;40;20055;-72
2021/07/21 01:47:44;;;;;;;5.60;3.47;;;;;;;18.65;34.98;101783.84;3574174;40;20077;-72
2021/07/21 01:50:14;;;;;;;6.53;3.45;;;;;;;18.60;34.51;101783.47;3575011;40;20440;-72
2021/07/21 01:52:48;;;;;;;5.32;3.25;;;;;;;18.58;34.42;101783.63;3571385;40;20052;-72
2021/07/21 01:55:21;;;;;;;5.75;3.42;;;;;;;18.56;34.63;101784.81;3572149;40;20069;-73
2021/07/21 01:57:52;;;;;;;6.22;3.40;;;;;;;18.55;34.42;101785.84;3583046;40;20309;-73
2021/07/21 02:00:44;;;;;;;4.32;2.65;;;;;;;18.49;34.82;101780.97;3575250;40;20405;-72
2021/07/21 02:03:12;;;;;;;6.03;3.20;;;;;;;18.47;34.61;101786.66;3576944;40;20057;-72
2021/07/21 02:05:47;;;;;;;5.13;3.60;;;;;;;18.44;34.58;101785.06;3573967;40;20053;-73
2021/07/21 02:08:20;;;;;;;5.75;3.10;;;;;;;18.42;34.66;101798.25;3571158;40;20053;-72
2021/07/21 02:10:51;;;;;;;5.07;3.25;;;;;;;18.40;34.63;101791.13;3567606;40;20129;-73
2021/07/21 02:13:27;;;;;;;5.88;3.35;;;;;;;18.42;35.26;101800.13;3570158;40;20053;-72
2021/07/21 02:16:16;;;;;;;4.55;2.78;;;;;;;18.37;34.89;101800.59;3575782;40;20049;-72
2021/07/21 02:18:47;;;;;;;5.55;3.40;;;;;;;18.37;35.08;101805.28;3575102;40;20059;-73
2021/07/21 02:21:16;;;;;;;6.28;3.25;;;;;;;18.36;35.05;101800.78;3562353;40;20508;-72
2021/07/21 02:23:46;;;;;;;6.28;3.47;;;;;;;18.33;35.19;101801.09;3574753;40;20063;-72
2021/07/21 02:26:36;;;;;;;6.03;3.20;;;;;;;18.27;34.71;101804.53;3574690;40;20752;-72
2021/07/21 02:29:07;;;;;;;;;;;;;;;17.94;35.26;101803.31;3573763;40;20106;-72
2021/07/21 02:31:59;;;;;;;4.78;2.83;;;;;;;18.15;35.07;101806.66;3573993;40;19933;-72
2021/07/21 02:34:28;;;;;;;5.63;2.80;;;;;;;18.12;35.08;101801.41;3575281;40;20061;-73
2021/07/21 02:36:57;;;;;;;5.35;2.95;;;;;;;18.11;34.94;101809.91;3573992;40;20044;-72
2021/07/21 02:39:26;;;;;;;5.80;3.28;;;;;;;18.09;35.49;101807.28;3575629;40;20142;-72
2021/07/21 02:41:54;;;;;;;5.20;3.42;;;;;;;18.05;34.81;101806.72;3572659;40;20400;-72
2021/07/21 02:44:24;;;;;;;5.70;3.28;;;;;;;18.08;35.38;101801.91;3578836;40;20056;-72
2021/07/21 02:46:53;;;;;;;5.22;3.10;;;;;;;18.03;35.25;101803.22;3552051;40;20042;-72
2021/07/21 02:49:22;;;;;;;5.75;3.25;;;;;;;18.04;34.91;101802.22;3553916;40;20062;-72
2021/07/21 02:52:05;;;;;;;5.95;3.47;;;;;;;18.03;35.53;101808.75;3561500;40;20085;-73
2021/07/21 02:55:01;;;;;;;5.18;3.33;;;;;;;18.01;35.72;101807.19;3546590;40;20049;-73
2021/07/21 02:57:37;;;;;;;6.35;3.40;;;;;;;18.02;35.73;101807.03;3552993;40;20045;-72
2021/07/21 03:00:12;;;;;;;6.88;3.47;;;;;;;18.00;35.92;101806.31;3553455;40;20050;-73
2021/07/21 03:02:44;;;;;;;5.68;3.35;;;;;;;17.98;35.29;101801.94;3543738;40;20045;-72
2021/07/21 03:05:16;;;;;;;5.38;3.30;;;;;;;17.99;35.47;101803.69;3553505;40;20171;-73
2021/07/21 03:07:59;;;;;;;5.50;3.35;;;;;;;17.98;35.82;101804.72;3544683;40;20049;-72
2021/07/21 03:10:28;;;;;;;5.55;3.70;;;;;;;17.95;35.20;101811.44;3549440;40;20053;-72
2021/07/21 03:13:12;;;;;;;5.75;3.42;;;;;;;17.94;35.14;101808.84;3553707;40;20054;-73
2021/07/21 03:15:52;;;;;;;4.65;3.10;;;;;;;17.90;35.53;101808.28;3551938;40;20393;-72
2021/07/21 03:18:32;;;;;;;5.05;2.72;;;;;;;17.91;35.38;101814.69;3545149;40;20058;-72
2021/07/21 03:21:03;;;;;;;5.63;3.10;;;;;;;17.87;35.64;101810.47;3549223;40;20045;-72
2021/07/21 03:23:37;;;;;;;5.28;3.20;;;;;;;17.87;35.29;101810.47;3547438;40;20467;-73
2021/07/21 03:26:32;;;;;;;7.32;3.70;;;;;;;17.86;35.50;101815.19;3559502;40;20314;-72
2021/07/21 03:29:05;;;;;;;6.28;3.80;;;;;;;17.85;35.86;101818.97;3574877;40;20059;-73
2021/07/21 03:31:36;;;;;;;5.55;3.70;;;;;;;17.85;35.30;101821.72;3569509;40;20063;-72
2021/07/21 03:34:10;;;;;;;5.30;3.58;;;;;;;17.83;35.54;101831.22;3572964;40;20049;-72
2021/07/21 03:36:52;;;;;;;5.80;3.35;;;;;;;17.79;35.50;101827.88;3574848;40;20400;-73
2021/07/21 03:39:41;;;;;;;6.15;3.40;;;;;;;17.77;35.47;101829.06;3575860;40;20085;-72
2021/07/21 03:42:18;;;;;;;4.95;3.00;;;;;;;17.76;35.94;101828.22;3568325;40;20054;-71
2021/07/21 03:44:51;;;;;;;6.10;3.53;;;;;;;17.74;35.60;101824.72;3564194;40;20388;-73
2021/07/21 03:47:22;;;;;;;5.57;3.50;;;;;;;17.74;36.09;101833.00;3564251;40;20690;-72
2021/07/21 03:49:52;;;;;;;5.53;3.17;;;;;;;17.68;35.79;101822.56;3581011;40;20145;-72
2021/07/21 03:52:26;;;;;;;5.43;3.33;;;;;;;17.68;35.56;101828.13;3585753;40;20085;-72
2021/07/21 03:55:06;;;;;;;5.28;3.30;;;;;;;17.66;35.49;101825.50;3575573;40;20056;-72
2021/07/21 03:57:54;;;;;;;4.53;2.92;;;;;;;17.64;35.50;101829.44;3575021;40;20037;-72
2021/07/21 04:00:28;;;;;;;5.47;3.13;;;;;;;17.63;35.53;101827.69;3573689;40;20048;-73
2021/07/21 04:03:04;;;;;;;6.03;3.42;;;;;;;17.64;35.57;101824.78;3574623;40;20069;-72
2021/07/21 04:06:00;;;;;;;5.78;3.20;;;;;;;17.62;35.90;101828.72;3574201;40;20655;-72
2021/07/21 04:08:41;;;;;;;6.03;3.45;;;;;;;17.61;35.66;101836.16;3574068;40;20049;-72
2021/07/21 04:11:12;;;;;;;5.82;3.17;;;;;;;17.61;36.18;101833.41;3575513;40;20049;-72
2021/07/21 04:13:41;;;;;;;5.70;3.70;;;;;;;17.61;36.28;101832.53;3571118;40;20061;-72
2021/07/21 04:16:35;;;;;;;5.80;3.30;;;;;;;17.57;35.96;101836.63;3577984;40;20044;-71
2021/07/21 04:19:08;;;;;;;5.53;3.47;;;;;;;17.57;36.53;101839.38;3568467;40;20048;-72
2021/07/21 04:21:40;;;;;;;4.97;3.40;;;;;;;17.52;36.05;101836.22;3577195;40;20061;-72
2021/07/21 04:24:10;;;;;;;6.95;3.63;;;;;;;17.51;36.30;101838.13;3567308;40;20135;-72
2021/07/21 04:26:39;;;;;;;6.15;3.80;;;;;;;17.49;36.36;101842.94;3566854;40;20049;-73
2021/07/21 04:29:12;;;;;;;6.97;3.90;;;;;;;17.49;36.54;101848.47;3573728;40;20081;-72
2021/07/21 04:31:42;;;;;;;5.38;3.50;;;;;;;17.46;36.74;101840.44;3573311;40;20049;-72
2021/07/21 04:34:14;;;;;;;6.25;3.70;;;;;;;17.48;36.98;101852.25;3580514;40;20089;-72
2021/07/21 04:36:43;;;;;;;5.22;3.45;;;;;;;17.45;36.86;101858.09;3571050;40;20081;-73
2021/07/21 04:39:17;;;;;;;7.18;3.72;;;;;;;17.44;36.76;101850.81;3574270;40;20644;-72
2021/07/21 04:42:18;;;;;;;7.03;3.72;;;;;;;17.41;36.76;101855.78;3550101;40;20053;-71
2021/07/21 04:44:48;;;;;;;5.75;3.65;;;;;;;17.42;36.81;101855.63;3580957;40;20049;-73
2021/07/21 04:47:17;;;;;;;6.68;3.58;;;;;;;17.43;36.34;101870.34;3560220;40;20061;-74
2021/07/21 04:49:46;;;;;;;6.70;3.47;;;;;;;17.44;37.20;101861.03;3563680;40;20089;-72
2021/07/21 04:52:19;;;;;;;6.30;3.63;;;;;;;17.41;37.14;101875.13;3574523;40;20397;-71
2021/07/21 04:54:48;;;;;;;6.47;3.15;;;;;;;17.41;36.63;101876.00;3564570;40;20053;-74
2021/07/21 04:57:18;;;;;;;6.40;3.53;;;;;;;17.41;36.75;101880.66;3559836;40;20050;-72
2021/07/21 05:00:10;;;;;;;6.47;3.35;;;;;;;17.41;36.76;101872.38;3563416;40;20044;-72
2021/07/21 05:03:11;;;;;;;6.35;3.70;;;;;;;17.41;36.90;101878.78;3568497;40;20037;-73
2021/07/21 05:05:49;;;;;;;5.38;3.47;;;;;;;17.45;37.18;101868.28;3572277;40;20057;-71
2021/07/21 05:08:21;;;;;;;5.35;2.92;;;;;;;17.44;36.87;101875.72;3567141;40;20029;-72
2021/07/21 05:11:15;;;;;;;5.13;3.10;;;;;;;17.46;37.38;101883.84;3567043;40;20121;-72
2021/07/21 05:13:43;;;;;;;6.90;3.60;;;;;;;17.49;37.83;101881.66;3573903;40;20060;-72
2021/07/21 05:16:14;;;;;;;5.63;3.25;;;;;;;17.52;37.52;101878.59;3572068;40;20040;-72
2021/07/21 05:18:43;;;;;;;5.50;3.33;;;;;;;17.56;37.76;101882.78;3560351;40;20057;-72
2021/07/21 05:21:20;;;;;;;6.80;3.15;;;;;;;17.64;37.95;101890.31;3587146;39;20067;-72
2021/07/21 05:23:50;;;;;;;7.22;3.67;;;;;;;17.72;38.54;101886.78;3578844;40;20053;-73
2021/07/21 05:26:18;;;;;;;6.40;3.55;;;;;;;17.81;38.40;101899.69;3560847;40;20040;-71
2021/07/21 05:29:18;;;;;;;5.72;3.47;;;;;;;17.89;38.28;101885.94;3571857;40;20037;-72
2021/07/21 05:31:58;;;;;;;5.35;3.33;;;;;;;18.00;38.28;101891.25;3559102;40;20041;-75
2021/07/21 05:34:27;;;;;;;6.00;3.85;;;;;;;18.13;38.44;101894.53;3574706;40;20049;-72
2021/07/21 05:37:10;;;;;;;6.85;3.45;;;;;;;18.25;38.41;101896.06;3570693;40;20049;-73
2021/07/21 05:39:48;;;;;;;5.45;3.20;;;;;;;18.38;38.28;101887.34;3575373;40;20040;-72
2021/07/21 05:42:17;;;;;;;4.95;3.30;;;;;;;18.50;38.19;101885.22;3565546;40;20397;-71
2021/07/21 05:44:45;;;;;;;6.75;3.50;;;;;;;18.62;38.16;101892.25;3568204;40;20060;-71
2021/07/21 05:47:13;;;;;;;5.22;3.55;;;;;;;18.74;38.03;101893.75;3584792;40;20059;-73
2021/07/21 05:49:42;;;;;;;5.47;3.75;;;;;;;18.86;38.46;101895.25;3566229;40;20053;-71
2021/07/21 05:52:21;;;;;;;5.03;3.10;;;;;;;18.99;38.37;101901.25;3575200;40;20089;-71
2021/07/21 05:54:49;;;;;;;4.68;3.33;;;;;;;19.09;38.23;101898.38;3578343;40;20057;-72
2021/07/21 05:57:20;;;;;;;5.55;3.10;;;;;;;19.20;37.58;101898.06;3575312;40;20049;-72
2021/07/21 05:59:55;;;;;;;6.35;3.55;;;;;;;19.29;38.06;101899.88;3572046;40;20085;-72
2021/07/21 06:02:23;;;;;;;5.90;3.53;;;;;;;19.40;37.71;101898.72;3573690;40;20076;-72
2021/07/21 06:04:53;;;;;;;7.20;3.75;;;;;;;19.49;37.80;101894.97;3572632;40;20068;-73
2021/07/21 06:07:41;;;;;;;5.72;3.45;;;;;;;19.60;37.56;101900.22;3573643;40;20122;-71
2021/07/21 06:10:27;;;;;;;5.85;3.53;;;;;;;19.68;37.38;101896.66;3573018;40;20616;-71
2021/07/21 06:13:00;;;;;;;6.00;3.22;;;;;;;19.76;36.84;101903.06;3562830;40;20038;-72
2021/07/21 06:15:30;;;;;;;4.70;3.00;;;;;;;19.85;37.17;101892.88;3569359;40;20332;-68
2021/07/21 06:18:02;;;;;;;5.65;3.60;;;;;;;19.92;36.48;101897.56;3576284;40;20033;-69
2021/07/21 06:20:39;;;;;;;6.47;3.40;;;;;;;20.02;36.61;101902.13;3573141;40;20029;-69
2021/07/21 06:23:09;;;;;;;5.55;3.25;;;;;;;20.11;36.73;101901.09;3574879;40;20048;-69
2021/07/21 06:25:43;;;;;;;5.97;3.38;;;;;;;20.16;36.20;101907.03;3574405;40;20036;-69
2021/07/21 06:28:48;;;;;;;5.07;3.25;;;;;;;20.22;36.13;101907.25;3571061;40;20053;-69
2021/07/21 06:31:17;;;;;;;6.03;3.45;;;;;;;20.32;36.36;101912.66;3591290;40;20422;-69
2021/07/21 06:33:46;;;;;;;5.00;3.47;;;;;;;20.40;36.04;101912.69;3590151;40;20041;-68
2021/07/21 06:36:14;;;;;;;6.45;3.53;;;;;;;20.48;36.07;101918.25;3574135;40;20037;-68
2021/07/21 06:38:45;;;;;;;6.40;3.40;;;;;;;20.58;36.24;101913.38;3572312;40;20396;-67
2021/07/21 06:41:28;;;;;;;6.25;3.58;;;;;;;20.63;36.17;101916.50;3573645;40;20077;-68
2021/07/21 06:44:00;;;;;;;5.43;3.17;;;;;;;20.73;35.58;101923.81;3572990;40;20021;-68
2021/07/21 06:46:40;;;;;;;5.80;3.50;;;;;;;20.80;35.51;101922.94;3574956;40;20041;-68
2021/07/21 06:49:18;;;;;;;5.25;3.35;;;;;;;20.89;35.71;101926.63;3566481;40;20034;-69
2021/07/21 06:51:47;;;;;;;4.97;3.10;;;;;;;20.98;35.16;101923.69;3561827;40;20048;-68
2021/07/21 06:54:25;;;;;;;5.55;3.15;;;;;;;21.09;35.44;101930.78;3561433;40;20410;-68
2021/07/21 06:57:13;;;;;;;6.43;3.03;;;;;;;21.16;35.04;101936.53;3573069;23;20123;-74
2021/07/21 06:59:47;;;;;;;5.20;3.40;;;;;;;21.25;34.64;101936.31;3565456;40;20073;-71
2021/07/21 07:02:39;;;;;;;;;;;;;;;21.01;35.57;101937.22;3552430;40;20103;-73
2021/07/21 07:05:38;;;;;;;;;;;;;;;;;;;;;
2021/07/21 07:08:51;;;;;;;14.88;4.00;;;;;;;21.52;34.94;101945.31;3534026;40;20379;-72
2021/07/21 07:11:44;;;;;;;13.00;3.83;;;;;;;21.66;34.38;101948.25;3558301;40;20041;-72
2021/07/21 07:14:12;;;;;;;5.15;3.10;;;;;;;21.75;34.47;101946.28;3565789;40;20060;-72
2021/07/21 07:16:40;;;;;;;6.35;3.08;;;;;;;21.86;34.18;101956.19;3552644;40;20132;-74
2021/07/21 07:19:09;;;;;;;5.00;3.10;;;;;;;21.93;33.69;101952.50;3564092;40;20053;-72
2021/07/21 07:21:37;;;;;;;5.22;2.92;;;;;;;22.02;33.89;101942.19;3556512;40;20505;-73
2021/07/21 07:24:06;;;;;;;9.75;3.45;;;;;;;22.13;33.48;101944.56;3573196;40;20392;-71
2021/07/21 07:26:35;;;;;;;8.00;3.47;;;;;;;22.21;33.46;101946.47;3556810;40;20045;-74
2021/07/21 07:29:05;;;;;;;8.68;3.00;;;;;;;22.34;32.70;101943.94;3565201;40;20069;-75
2021/07/21 07:31:33;;;;;;;4.70;2.80;;;;;;;22.40;32.84;101946.00;3564650;40;20152;-73
2021/07/21 07:34:01;;;;;;;4.32;2.90;;;;;;;22.48;32.71;101946.81;3568687;40;20130;-72
2021/07/21 07:36:29;;;;;;;7.22;3.03;;;;;;;22.58;32.85;101943.78;3566409;40;20029;-73
2021/07/21 07:38:57;;;;;;;8.70;3.63;;;;;;;22.67;32.36;101945.47;3566871;40;20078;-74
2021/07/21 07:41:26;;;;;;;5.28;2.80;;;;;;;22.76;32.35;101952.72;3551499;40;20318;-74
2021/07/21 07:43:54;;;;;;;5.57;3.20;;;;;;;22.84;31.92;101944.31;3565627;40;20418;-72
2021/07/21 07:46:25;;;;;;;4.47;2.90;;;;;;;22.94;31.60;101946.84;3556900;40;20044;-74
2021/07/21 07:48:54;;;;;;;4.93;2.95;;;;;;;23.00;31.69;101946.09;3569090;40;20060;-73
2021/07/21 07:51:23;;;;;;;5.85;3.00;;;;;;;23.10;31.59;101948.63;3567912;40;20041;-72
2021/07/21 07:53:52;;;;;;;5.30;2.97;;;;;;;23.17;31.65;101944.00;3569845;40;20052;-73
2021/07/21 07:56:20;;;;;;;4.53;2.85;;;;;;;23.24;30.91;101947.78;3566682;40;20041;-73
2021/07/21 07:58:48;;;;;;;5.35;2.83;;;;;;;23.32;31.37;101947.69;3567659;40;20082;-73
2021/07/21 08:01:16;;;;;;;5.30;2.90;;;;;;;23.38;31.47;101946.94;3551656;40;20048;-72
2021/07/21 08:03:46;;;;;;;6.60;3.20;;;;;;;23.48;31.15;101950.34;3565946;40;20400;-72
2021/07/21 08:06:14;;;;;;;5.07;2.83;;;;;;;23.54;30.76;101943.16;3555165;40;20047;-73
2021/07/21 08:08:42;;;;;;;5.10;2.80;;;;;;;23.61;30.78;101952.47;3567956;40;20045;-72
2021/07/21 08:11:12;;;;;;;5.30;2.70;;;;;;;23.69;30.64;101950.47;3555218;40;20033;-72
2021/07/21 08:13:40;;;;;;;6.03;2.92;;;;;;;23.77;30.63;101948.63;3570637;40;20061;-72
2021/07/21 08:16:10;;;;;;;5.35;2.88;;;;;;;23.84;30.38;101949.59;3566191;40;20403;-72
2021/07/21 08:18:38;;;;;;;4.72;3.30;;;;;;;23.92;30.74;101952.28;3565948;40;20094;-72
2021/07/21 08:21:08;;;;;;;5.20;2.85;;;;;;;24.00;30.30;101953.03;3552569;40;20038;-72
2021/07/21 08:23:36;;;;;;;6.18;3.10;;;;;;;24.04;30.27;101948.78;3564589;40;20041;-73
2021/07/21 08:26:04;;;;;;;5.10;2.97;;;;;;;24.12;30.58;101947.00;3566004;40;20037;-73
2021/07/21 08:28:35;;;;;;;5.38;2.97;;;;;;;24.19;30.33;101950.72;3565463;40;20122;-74
2021/07/21 08:31:03;;;;;;;4.00;2.80;;;;;;;24.27;29.80;101950.63;3551948;40;20073;-73
2021/07/21 08:33:31;;;;;;;5.75;2.97;;;;;;;24.33;29.60;101949.81;3566635;40;20428;-73
2021/07/21 08:35:59;;;;;;;5.60;3.20;;;;;;;24.39;29.77;101946.22;3563804;40;20041;-74
2021/07/21 08:38:28;;;;;;;5.25;3.20;;;;;;;24.46;29.44;101941.56;3566308;40;21310;-72
2021/07/21 08:40:57;;;;;;;5.70;3.40;;;;;;;24.51;29.38;101944.66;3563435;40;20057;-73
2021/07/21 08:43:27;;;;;;;4.13;2.60;;;;;;;24.57;29.21;101938.25;3565261;40;20049;-74
2021/07/21 08:45:56;;;;;;;4.40;2.90;;;;;;;24.61;28.98;101935.94;3565163;40;20052;-73
2021/07/21 08:48:24;;;;;;;4.57;3.08;;;;;;;24.64;28.89;101938.31;3565365;40;20048;-73
2021/07/21 08:50:52;;;;;;;4.65;2.70;;;;;;;24.67;28.70;101940.75;3552852;40;20144;-71
2021/07/21 08:53:21;;;;;;;6.22;3.00;;;;;;;24.71;28.80;101939.28;3571842;40;20057;-73
2021/07/21 08:55:51;;;;;;;6.32;3.30;;;;;;;24.76;28.86;101936.78;3550297;40;20061;-74
2021/07/21 08:58:21;;;;;;;9.25;3.85;;;;;;;24.78;28.74;101943.88;3566130;40;20052;-73
2021/07/21 09:00:51;;;;;;;7.13;3.22;;;;;;;24.85;28.95;101941.16;3571384;40;20053;-73
2021/07/21 09:03:21;;;;;;;5.15;3.08;;;;;;;24.87;28.92;101936.22;3576599;40;20048;-74
2021/07/21 09:05:50;;;;;;;4.65;3.22;;;;;;;24.92;28.76;101944.88;3573947;40;20061;-75
2021/07/21 09:08:18;;;;;;;5.28;3.17;;;;;;;24.98;29.03;101944.06;3565373;40;20115;-74
2021/07/21 09:10:47;;;;;;;6.03;3.40;;;;;;;25.04;28.66;101948.00;3564790;40;20061;-74
2021/07/21 09:13:18;;;;;;;5.10;2.95;;;;;;;25.11;28.55;101944.19;3566233;40;20150;-74
2021/07/21 09:15:49;;;;;;;5.35;3.10;;;;;;;25.18;28.51;101944.25;3551568;40;20407;-72
2021/07/21 09:18:19;;;;;;;4.63;2.85;;;;;;;25.24;28.49;101953.81;3570854;40;20126;-73
2021/07/21 09:21:04;;;;;;;5.20;2.85;;;;;;;25.31;28.46;101944.38;3570030;40;20057;-74
2021/07/21 09:23:36;;;;;;;4.88;2.78;;;;;;;25.39;28.25;101946.16;3565321;40;20048;-74
2021/07/21 09:26:04;;;;;;;6.35;3.10;;;;;;;25.40;28.29;101948.75;3551562;40;20052;-74
2021/07/21 09:28:38;;;;;;;5.68;3.30;;;;;;;25.50;27.83;101963.28;3566576;40;20346;-74
2021/07/21 09:31:06;;;;;;;5.30;3.05;;;;;;;25.54;27.40;101947.78;3563941;40;20061;-73
2021/07/21 09:33:36;;;;;;;5.15;3.33;;;;;;;25.56;27.68;101941.97;3567841;40;20064;-73
2021/07/21 09:36:05;;;;;;;5.28;3.10;;;;;;;25.61;27.58;101949.78;3549461;40;20039;-72
2021/07/21 09:38:33;;;;;;;4.85;3.40;;;;;;;25.64;27.43;101946.53;3570328;40;20053;-74
2021/07/21 09:41:05;;;;;;;4.90;3.30;;;;;;;25.67;26.64;101949.81;3566873;40;20055;-73
2021/07/21 09:43:34;;;;;;;6.75;3.83;;;;;;;25.66;27.15;101950.88;3570209;40;20346;-74
2021/07/21 09:46:06;;;;;;;5.13;3.28;;;;;;;25.69;27.20;101949.59;3558469;40;20098;-74
2021/07/21 09:48:39;;;;;;;4.47;2.95;;;;;;;25.68;27.03;101947.88;3564706;40;20421;-75
2021/07/21 09:51:09;;;;;;;5.88;3.50;;;;;;;25.66;26.65;101945.28;3553087;40;20045;-74
2021/07/21 09:53:40;;;;;;;5.20;3.53;;;;;;;25.67;26.32;101955.41;3571604;40;20093;-73
2021/07/21 09:56:09;;;;;;;5.60;3.13;;;;;;;25.65;26.83;101946.34;3554348;40;20041;-73
2021/07/21 09:58:37;;;;;;;5.22;3.40;;;;;;;25.65;26.47;101946.34;3566912;40;20042;-74
2021/07/21 10:01:07;;;;;;;4.97;3.63;;;;;;;25.65;26.20;101937.06;3566729;40;20151;-74
2021/07/21 10:03:39;;;;;;;5.20;3.28;;;;;;;25.60;26.43;101953.66;3566958;40;20144;-74
2021/07/21 10:06:08;;;;;;;5.40;3.45;;;;;;;25.53;26.12;101943.25;3565554;40;20041;-74
2021/07/21 10:08:40;;;;;;;6.10;3.67;;;;;;;25.55;26.03;101943.91;3567753;40;20057;-74
2021/07/21 10:11:26;;;;;;;5.88;3.28;;;;;;;25.47;25.65;101938.47;3564762;40;20340;-74
2021/07/21 10:14:08;;;;;;;5.88;3.42;;;;;;;25.45;26.17;101942.53;3564341;40;20053;-73
2021/07/21 10:16:41;;;;;;;4.68;3.30;;;;;;;25.40;26.43;101945.09;3551030;40;20248;-73
2021/07/21 10:19:12;;;;;;;5.13;3.30;;;;;;;25.35;26.11;101948.53;3565185;40;20092;-73
2021/07/21 10:21:46;;;;;;;6.00;3.80;;;;;;;25.28;26.14;101950.38;3550357;40;20061;-72
2021/07/21 10:24:14;;;;;;;6.65;3.92;;;;;;;25.18;26.13;101938.66;3565496;40;20049;-74
2021/07/21 10:26:43;;;;;;;5.45;3.67;;;;;;;25.10;26.00;101930.41;3565475;40;20038;-74
2021/07/21 10:29:13;;;;;;;6.03;3.58;;;;;;;25.03;26.64;101938.72;3563930;40;20045;-73
2021/07/21 10:31:43;;;;;;;6.32;3.75;;;;;;;24.99;25.98;101936.53;3555535;40;20102;-73
2021/07/21 10:34:11;;;;;;;5.35;3.25;;;;;;;24.92;26.41;101935.63;3567237;40;20057;-73
2021/07/21 10:36:40;;;;;;;4.50;3.10;;;;;;;24.88;26.66;101931.47;3565397;40;20442;-73
2021/07/21 10:39:13;;;;;;;7.20;3.70;;;;;;;24.87;26.57;101933.41;3567084;40;20054;-73
2021/07/21 10:41:43;;;;;;;5.90;3.40;;;;;;;24.83;26.64;101931.22;3565395;40;20069;-74
2021/07/21 10:44:14;;;;;;;5.03;3.03;;;;;;;24.84;26.67;101931.03;3567769;40;20057;-75
2021/07/21 10:46:46;;;;;;;4.78;2.95;;;;;;;24.84;26.87;101935.75;3564697;40;20086;-73
2021/07/21 10:49:29;;;;;;;5.97;3.40;;;;;;;24.83;26.49;101932.09;3558502;40;20425;-75
2021/07/21 10:52:45;;;;;;;7.03;3.38;;;;;;;24.80;26.73;101930.56;3566149;40;20049;-72
2021/07/21 10:55:19;;;;;;;7.10;3.20;;;;;;;24.81;26.45;101929.50;3558618;40;20427;-73
2021/07/21 11:00:39;;;;;;;5.00;3.20;;;;;;;24.83;27.16;101929.31;3564643;40;20306;-72
2021/07/21 11:03:20;;;;;;;5.35;3.67;;;;;;;24.85;26.92;101929.09;3565134;40;20061;-72
2021/07/21 11:05:58;;;;;;;6.65;4.25;;;;;;;24.87;26.75;101927.81;3565931;40;20045;-72
2021/07/21 11:08:28;;;;;;;4.95;3.28;;;;;;;24.88;27.14;101923.94;3566464;40;20061;-71
2021/07/21 11:10:58;;;;;;;7.20;3.83;;;;;;;24.91;26.76;101919.88;3554175;40;20045;-72
2021/07/21 11:13:41;;;;;;;8.68;3.40;;;;;;;24.93;26.46;101929.81;3566130;40;20053;-73
2021/07/21 11:16:39;;;;;;;5.70;3.70;;;;;;;24.94;26.67;101925.09;3566928;40;20044;-72
2021/07/21 11:19:31;;;;;;;6.07;3.53;;;;;;;24.92;26.80;101927.22;3563107;40;20393;-71
2021/07/21 11:22:02;;;;;;;5.57;3.40;;;;;;;24.94;26.67;101920.38;3565842;40;20049;-73
2021/07/21 11:24:31;;;;;;;5.63;3.95;;;;;;;24.96;26.69;101926.59;3564074;40;20061;-75
2021/07/21 11:26:59;;;;;;;5.20;3.42;;;;;;;24.96;26.82;101918.22;3564914;40;20438;-73
2021/07/21 11:29:47;;;;;;;5.80;3.80;;;;;;;24.96;26.02;101923.81;3564031;40;20408;-73
2021/07/21 11:32:36;;;;;;;6.72;4.00;;;;;;;24.90;26.43;101921.81;3562239;40;20038;-74
2021/07/21 11:35:41;;;;;;;5.75;4.25;;;;;;;24.87;26.18;101922.22;3563963;40;20060;-75
2021/07/21 11:38:21;;;;;;;6.80;4.07;;;;;;;24.86;25.97;101928.91;3565044;40;20422;-74
2021/07/21 11:40:49;;;;;;;6.63;3.88;;;;;;;24.81;26.58;101918.28;3555822;40;20153;-75
2021/07/21 11:43:36;;;;;;;6.32;4.03;;;;;;;24.77;25.70;101919.78;3577021;40;20057;-75
2021/07/21 11:46:09;;;;;;;6.75;3.95;;;;;;;24.74;25.74;101925.78;3563312;40;20049;-73
2021/07/21 11:48:38;;;;;;;5.70;3.88;;;;;;;24.70;25.92;101918.00;3566555;40;20053;-73
2021/07/21 11:51:12;;;;;;;5.95;3.95;;;;;;;24.66;25.47;101923.09;3565637;40;20030;-75
2021/07/21 11:53:40;;;;;;;8.20;4.47;;;;;;;24.58;25.75;101920.41;3566635;40;20089;-73
2021/07/21 11:56:11;;;;;;;7.40;4.68;;;;;;;24.57;25.36;101915.00;3549075;40;20477;-73
2021/07/21 11:58:40;;;;;;;7.82;4.68;;;;;;;24.47;25.80;101918.13;3567496;40;20102;-74
2021/07/21 12:01:08;;;;;;;7.25;4.28;;;;;;;24.45;25.84;101914.69;3565750;40;20052;-74
2021/07/21 12:03:47;;;;;;;6.13;3.95;;;;;;;24.45;26.06;101907.13;3569872;40;20057;-74